Impacts METAR Board
IDs:

KSTL - St Louis/Lambert Int, MO, US

Updated at: 1700 UTC 20 Aug 2019
Potential Impact None Slight Moderate High
Time 20/05Z 20/06Z 20/07Z 20/08Z 20/09Z 20/10Z 20/11Z 20/12Z 20/13Z 20/14Z 20/15Z 20/16Z 20/17Z
Temp82 82 81 81 81 80 81 80 82 85 87 89 77
Dewpt71 72 73 73 73 73 73 73 73 73 74 74 66
Altim30.02 30.02 30.01 30.01 30.00 29.97 29.99 30.00 30.04 30.04 30.02 30.05 30.09
VIS10 10 10 10 10 10 10 10 10 10 10 10 10
CIG-- -- -- -- -- -- 80 250 85 250 250 90 25
CoverCLRFEWFEWCLRCLRCLRBKNBKNOVCOVCOVCOVCOVC
FltCatVFRVFRVFRVFRVFRVFRVFRVFRVFRVFRVFRVFRMVFR
WX--------------------------
WDir210210220240240018002202102100360
WSpd5 4 5 4 3 0 3 3 6 5 6 3 13
WGst-- -- -- -- -- -- -- -- -- -- -- -- 25
Raw hourly METARs
KSTL 200451Z 21005KT 10SM CLR 28/22 A3002 RMK AO2 SLP149 T02780217
KSTL 200551Z 21004KT 10SM FEW100 28/22 A3002 RMK AO2 SLP150 T02780222 10328 20278 403610239 53004
KSTL 200651Z 22005KT 10SM FEW050 27/23 A3001 RMK AO2 SLP147 T02720228
KSTL 200751Z 24004KT 10SM CLR 27/23 A3001 RMK AO2 SLP144 T02720228
KSTL 200851Z 24003KT 10SM CLR 27/23 A3000 RMK AO2 SLP144 T02720228 56006
KSTL 200951Z 00000KT 10SM CLR 27/23 A2997 RMK AO2 SLP134 T02670228
KSTL 201051Z 18003KT 10SM BKN080 27/23 A2999 RMK AO2 SLP140 ACC E AND OHD T02720228
KSTL 201151Z VRB03KT 10SM FEW080 BKN250 27/23 A3000 RMK AO2 SLP143 ACC E-SW T02670228 10278 20267 55001
KSTL 201251Z 22006KT 10SM BKN085 OVC250 28/23 A3004 RMK AO2 SLP158 ACC OHD T02780228
KSTL 201351Z 21005KT 10SM FEW090 OVC250 29/23 A3004 RMK AO2 SLP157 T02940228
KSTL 201451Z 21006KT 10SM FEW090 OVC250 31/23 A3002 RMK AO2 SLP151 T03060233 50007
KSTL 201551Z VRB03KT 10SM FEW050 BKN090 OVC250 32/23 A3005 RMK AO2 LTG DSNT N PRESRR SLP160 T03170233
KSTL 201651Z 36013G25KT 10SM BKN025 BKN048 OVC100 25/19 A3009 RMK AO2 PK WND 35041/1621 WSHFT 1620 LTG DSNT N-E SLP177 OCNL LTGIC DSNT N-E CB DSNT N-E MOV SE VCSH SW T02500189



Page loaded:  17:09 UTC  |   10:09 AM Pacific  |   11:09 AM Mountain  |   12:09 PM Central  |   01:09 PM Eastern

 

ADVISORIES

FORECASTS

FORECASTS

OBSERVATIONS

USER TOOLS

ABOUT US